Latest Weather Observations for Lancelin (Defence)

IDW60801

Issued at 10:53 pm WST Saturday 23 January 2021 (issued every 10 minutes, with the page automatically refreshed every 10 minutes)

About weather observations | Map of weather stations | Latest weather observations for WA | Other Formats
Station Details ID: 009280 Name: LANCELIN (DEFENCE) Lat: -30.84 Lon: 115.23 Height: 3.41 m
Data from the previous 72 hours. | See also: Recent months at Lancelin (Defence)
Date/Time
WST
Temp
°C
App
Temp
°C
Dew
Point
°C
Rel
Hum
%
Delta-T
°C
Wind Press
QNH
hPa
Press
MSL
hPa
Rain since
9am
mm
Dir  Spd
km/h
Gust
km/h
Spd
kts
Gust
kts
23/10:30pm 21.5 20.0 14.2 63 4.3 SSW 15 20 8 11 1006.4 1006.4 0.0
23/10:00pm 21.3 20.4 14.9 67 3.8 WSW 13 20 7 11 1006.7 1006.7 0.0
23/09:30pm 21.2 20.5 15.3 69 3.5 WSW 13 19 7 10 1006.8 1006.8 0.0
23/09:00pm 21.1 19.6 15.2 69 3.5 W 17 22 9 12 1006.4 1006.4 0.0
23/08:30pm 21.4 20.7 16.4 73 3.0 WSW 15 24 8 13 1006.0 1006.0 0.0
23/08:00pm 21.4 20.3 16.4 73 3.0 WSW 17 24 9 13 1005.7 1005.7 0.0
23/07:30pm 21.7 20.7 16.6 73 3.1 WSW 17 24 9 13 1005.5 1005.5 0.0
23/07:00pm 21.8 21.2 16.7 73 3.1 WSW 15 26 8 14 1005.3 1005.3 0.0
23/06:30pm 22.1 21.5 17.5 75 2.8 SW 17 24 9 13 1004.9 1004.9 0.0
23/06:00pm 22.3 21.3 17.9 76 2.7 SW 20 28 11 15 1004.5 1004.5 0.0
23/05:30pm 22.9 22.1 18.4 76 2.8 SW 20 30 11 16 1004.0 1004.0 0.0
23/05:00pm 23.1 21.8 18.2 74 3.1 SW 22 30 12 16 1003.6 1003.6 0.0
23/04:30pm 23.3 22.5 18.4 74 3.1 SW 20 28 11 15 1003.6 1003.6 0.0
23/04:00pm 23.8 23.1 18.2 71 3.5 SW 19 24 10 13 1003.5 1003.5 0.0
23/03:30pm 24.7 24.2 18.6 69 3.9 SW 19 24 10 13 1003.6 1003.6 0.0
23/03:00pm 23.9 23.0 18.1 70 3.7 SW 20 26 11 14 1003.5 1003.5 0.0
23/02:30pm 24.6 23.8 18.5 69 3.9 SW 20 28 11 15 1003.6 1003.6 0.0
23/02:00pm 24.7 23.7 18.9 70 3.7 SW 22 32 12 17 1003.7 1003.7 0.0
23/01:30pm 23.7 23.2 19.2 76 2.9 SW 20 30 11 16 1003.7 1003.7 0.0
23/01:00pm 24.5 24.2 19.1 72 3.5 SW 19 26 10 14 1003.7 1003.7 0.0
23/12:30pm 24.6 23.7 18.3 68 4.0 SW 20 26 11 14 1003.7 1003.7 0.0
23/12:00pm 24.9 24.4 18.6 68 4.0 SW 19 26 10 14 1003.9 1003.9 0.0
23/11:30am 24.7 24.3 19.3 72 3.5 SW 20 28 11 15 1003.9 1003.9 0.0
23/11:00am 24.4 23.9 19.2 73 3.3 SW 20 30 11 16 1004.1 1004.1 0.0
23/10:30am 24.3 24.0 19.6 75 3.0 WSW 20 30 11 16 1004.0 1004.0 0.0
23/10:00am 24.6 24.7 19.9 75 3.0 WSW 19 26 10 14 1003.8 1003.8 0.0
23/09:30am 24.5 25.5 20.2 77 2.8 WSW 15 22 8 12 1003.6 1003.6 0.0
23/09:00am 23.8 24.7 20.1 80 2.4 SW 15 20 8 11 1003.6 1003.6 0.0
23/08:30am 23.4 24.4 20.3 83 2.0 SW 15 20 8 11 1003.4 1003.4 0.0
23/08:00am 22.9 23.6 20.4 86 1.6 SW 17 24 9 13 1003.0 1003.0 0.0
23/07:30am 22.9 23.9 21.0 89 1.2 WSW 17 24 9 13 1002.7 1002.7 0.0
23/07:00am 22.6 23.6 21.1 91 1.0 WSW 17 22 9 12 1002.2 1002.2 0.0
23/06:30am 22.7 24.0 21.7 94 0.7 WSW 17 24 9 13 1002.1 1002.1 0.0
23/06:00am 22.6 24.4 21.8 95 0.5 SW 15 20 8 11 1001.8 1001.8 0.0
23/05:30am 22.7 24.6 22.0 96 0.5 WSW 15 20 8 11 1001.7 1001.7 0.0
23/05:00am 22.7 24.2 22.0 96 0.5 WSW 17 22 9 12 1001.3 1001.3 0.0
23/04:30am 22.2 24.4 21.9 98 0.2 WSW 13 19 7 10 1001.2 1001.2 0.0
23/04:00am 18.9 20.7 17.4 91 0.9 NW 4 6 2 3 1001.2 1001.2 0.0
23/03:30am 20.7 24.0 19.0 90 1.1 CALM 0 6 0 3 1000.9 1000.9 0.0
23/03:00am 22.2 24.7 21.0 93 0.8 SW 9 13 5 7 1000.7 1000.7 0.0
23/02:30am 21.6 24.3 21.4 99 0.1 WSW 9 15 5 8 1000.9 1000.9 0.0
23/02:00am 17.9 19.6 16.2 90 1.0 ESE 2 4 1 2 1000.8 1000.8 0.0
23/01:30am 19.6 21.5 17.7 89 1.2 E 4 6 2 3 1000.7 1000.7 0.0
23/01:00am 20.6 22.5 18.5 88 1.3 ESE 6 7 3 4 1001.0 1001.0 0.0
23/12:30am 22.2 23.6 19.6 85 1.7 SSE 11 17 6 9 1001.4 1001.4 0.0
23/12:00am 22.4 23.1 19.6 84 1.8 SSE 15 19 8 10 1001.6 1001.6 0.0
 
Date/Time
WST
Temp
°C
App
Temp
°C
Dew
Point
°C
Rel
Hum
%
Delta-T
°C
Wind Press
QNH
hPa
Press
MSL
hPa
Rain since
9am
mm
Dir  Spd
km/h
Gust
km/h
Spd
kts
Gust
kts
22/11:30pm 22.8 23.3 20.0 84 1.8 S 17 24 9 13 1002.2 1002.2 0.0
22/11:00pm 23.0 23.2 20.1 84 1.9 S 19 26 10 14 1002.4 1002.4 0.0
22/10:30pm 23.1 23.1 19.7 81 2.2 S 19 24 10 13 1002.6 1002.6 0.0
22/10:00pm 23.3 23.0 19.5 79 2.4 S 20 30 11 16 1002.3 1002.3 0.0
22/09:30pm 23.4 23.2 19.3 78 2.6 S 19 28 10 15 1002.1 1002.1 0.0
22/09:00pm 23.4 22.5 19.1 77 2.7 SSE 22 30 12 16 1002.1 1002.1 0.0
22/08:30pm 23.4 22.4 18.9 76 2.9 SSE 22 30 12 16 1002.3 1002.3 0.0
22/08:00pm 23.5 22.8 19.6 79 2.5 S 22 32 12 17 1002.2 1002.2 0.0
22/07:30pm 23.5 23.3 19.8 80 2.4 SSE 20 32 11 17 1002.0 1002.0 0.0
22/07:00pm 23.9 23.0 19.8 78 2.7 S 24 33 13 18 1001.8 1001.8 0.0
22/06:30pm 24.6 24.2 20.1 76 2.9 S 22 30 12 16 1002.1 1002.1 0.0
22/06:00pm 24.9 24.8 19.9 74 3.2 S 20 28 11 15 1001.6 1001.6 0.0
22/05:30pm 25.1 24.9 19.7 72 3.5 S 20 28 11 15 1001.7 1001.7 0.0
22/05:00pm 25.3 24.7 19.7 71 3.6 S 22 30 12 16 1001.6 1001.6 0.0
22/04:30pm 25.8 25.6 19.4 67 4.1 S 19 26 10 14 1002.1 1002.1 0.0
22/04:00pm 26.1 26.0 19.5 67 4.3 S 19 26 10 14 1002.3 1002.3 0.0
22/03:30pm 26.8 26.8 19.7 65 4.6 S 19 26 10 14 1002.4 1002.4 0.0
22/03:00pm 26.7 26.4 19.6 65 4.6 S 20 28 11 15 1002.6 1002.6 0.0
22/02:30pm 26.0 25.6 19.4 67 4.3 SSW 20 28 11 15 1002.6 1002.6 0.0
22/02:00pm 27.1 27.7 20.2 66 4.5 SSW 17 20 9 11 1002.8 1002.8 0.0
22/01:30pm 26.9 27.4 19.3 63 4.9 SSW 15 20 8 11 1002.8 1002.8 0.0
22/01:00pm 27.2 28.0 19.8 64 4.8 S 15 20 8 11 1003.0 1003.0 0.0
22/12:30pm 27.3 28.4 19.6 62 5.0 SSW 13 19 7 10 1003.4 1003.4 0.0
22/12:00pm 27.0 28.7 20.1 66 4.5 SW 11 17 6 9 1003.6 1003.6 0.0
22/11:30am 27.0 28.3 20.1 66 4.5 SSW 13 17 7 9 1003.7 1003.7 0.0
22/11:00am 27.6 27.8 18.6 58 5.8 SW 15 22 8 12 1003.9 1003.9 0.0
22/10:30am 29.0 28.8 17.5 49 7.3 WSW 15 19 8 10 1004.0 1004.0 0.0
22/10:00am 33.7 30.9 12.7 28 12.6 ENE 19 30 10 16 1003.8 1003.8 0.0
22/09:30am 31.8 28.6 13.1 32 11.2 ENE 22 30 12 16 1004.0 1004.0 0.0
22/09:00am 29.6 26.1 13.4 37 9.7 ENE 24 35 13 19 1004.2 1004.2 0.0
22/08:30am 27.5 23.9 13.1 41 8.5 ENE 24 35 13 19 1004.3 1004.3 0.0
22/08:00am 25.9 21.6 13.1 45 7.5 ENE 28 43 15 23 1004.5 1004.5 0.0
22/07:35am 24.7 20.5 13.6 50 6.5 ENE 28 48 15 26 1004.5 1004.5 0.0
22/07:30am 24.3 19.6 13.2 50 6.4 ENE 30 48 16 26 1004.5 1004.5 0.0
22/07:00am 23.1 18.8 13.3 54 5.7 ENE 28 41 15 22 1004.6 1004.6 0.0
22/06:30am 22.4 18.5 13.2 56 5.3 ENE 26 41 14 22 1004.5 1004.5 0.0
22/06:15am 22.2 17.8 13.0 56 5.3 ENE 28 46 15 25 1004.6 1004.6 0.0
22/06:00am 22.1 17.7 12.9 56 5.3 ENE 28 43 15 23 1004.4 1004.4 0.0
22/05:30am 22.4 18.4 12.9 55 5.4 E 26 41 14 22 1004.3 1004.3 0.0
22/05:00am 22.7 18.5 12.3 52 5.9 E 26 41 14 22 1004.1 1004.1 0.0
22/04:30am 22.9 19.0 12.2 51 6.1 E 24 39 13 21 1004.1 1004.1 0.0
22/04:00am 23.1 19.3 12.4 51 6.1 E 24 35 13 19 1004.1 1004.1 0.0
22/03:30am 23.3 20.1 13.2 53 5.8 E 22 33 12 18 1004.2 1004.2 0.0
22/03:00am 23.4 20.4 14.7 58 5.2 E 24 37 13 20 1004.4 1004.4 0.0
22/02:30am 20.4 21.9 18.9 91 0.9 ESE 9 28 5 15 1004.7 1004.7 0.0
22/02:00am 20.0 22.1 19.3 96 0.4 SE 7 9 4 5 1005.5 1005.5 0.0
22/01:30am 20.6 23.0 19.6 94 0.6 ESE 6 7 3 4 1005.9 1005.9 0.0
22/01:00am 21.5 23.2 20.1 92 0.9 SE 11 15 6 8 1006.1 1006.1 0.0
22/12:30am 21.8 23.6 20.3 91 1.0 SE 11 15 6 8 1006.4 1006.4 0.0
22/12:00am 23.3 24.5 21.4 89 1.3 SSE 17 24 9 13 1006.4 1006.4 0.0
 
Date/Time
WST
Temp
°C
App
Temp
°C
Dew
Point
°C
Rel
Hum
%
Delta-T
°C
Wind Press
QNH
hPa
Press
MSL
hPa
Rain since
9am
mm
Dir  Spd
km/h
Gust
km/h
Spd
kts
Gust
kts
21/11:30pm 23.5 24.3 21.4 88 1.4 SSE 19 28 10 15 1006.7 1006.7 0.0
21/11:00pm 23.5 24.3 21.4 88 1.4 SSE 19 26 10 14 1007.0 1007.0 0.0
21/10:30pm 23.6 24.3 21.5 88 1.4 SSE 20 26 11 14 1007.3 1007.3 0.0
21/10:00pm 23.6 23.8 21.3 87 1.5 SSE 22 30 12 16 1007.6 1007.6 0.0
21/09:30pm 23.4 23.9 21.1 87 1.5 SSE 20 30 11 16 1007.8 1007.8 0.0
21/09:00pm 23.3 23.3 21.0 87 1.5 SSE 22 32 12 17 1007.8 1007.8 0.0
21/08:30pm 23.3 22.9 21.0 87 1.5 SSE 24 33 13 18 1007.6 1007.6 0.0
21/08:00pm 23.4 23.1 21.1 87 1.5 S 24 33 13 18 1007.6 1007.6 0.0
21/07:30pm 23.6 23.6 20.9 85 1.8 SSE 22 33 12 18 1007.6 1007.6 0.0
21/07:00pm 23.9 23.4 20.8 83 2.0 S 24 32 13 17 1007.5 1007.5 0.0
21/06:30pm 24.4 23.8 20.5 79 2.5 S 24 35 13 19 1007.5 1007.5 0.0
21/06:00pm 25.1 24.9 20.6 76 2.9 SSE 22 33 12 18 1007.2 1007.2 0.0
21/05:30pm 25.4 25.8 20.9 76 3.0 S 20 32 11 17 1007.1 1007.1 0.0
21/05:00pm 25.5 25.0 20.7 75 3.2 S 24 33 13 18 1007.3 1007.3 0.0
21/04:30pm 25.7 24.7 20.5 73 3.4 S 26 35 14 19 1007.5 1007.5 0.0
21/04:00pm 25.9 25.2 20.2 71 3.7 S 24 33 13 18 1007.6 1007.6 0.0
21/03:30pm 25.8 24.1 19.9 70 3.8 S 28 35 15 19 1007.8 1007.8 0.0
21/03:00pm 26.5 26.1 20.1 68 4.2 S 22 32 12 17 1008.0 1008.0 0.0
21/02:30pm 26.2 24.9 19.8 68 4.2 S 26 33 14 18 1008.2 1008.2 0.0
21/02:00pm 26.4 24.9 19.5 66 4.5 S 26 39 14 21 1008.4 1008.4 0.0
21/01:30pm 26.3 24.6 19.9 68 4.2 S 28 35 15 19 1008.7 1008.7 0.0
21/01:00pm 26.7 25.8 19.8 66 4.5 SSE 24 33 13 18 1009.2 1009.2 0.0
21/12:30pm 26.7 25.7 20.5 69 4.1 S 26 39 14 21 1009.4 1009.4 0.0
21/12:00pm 26.1 24.6 20.2 70 3.9 S 28 37 15 20 1009.5 1009.5 0.0
21/11:30am 26.2 24.9 19.8 68 4.2 S 26 35 14 19 1009.6 1009.6 0.0
21/11:00am 27.0 26.6 20.1 66 4.5 S 22 35 12 19 1009.7 1009.7 0.0
21/10:30am 26.4 25.7 19.5 66 4.5 S 22 33 12 18 1010.0 1010.0 0.0
21/10:00am 26.0 25.1 19.9 69 4.0 S 24 32 13 17 1009.9 1009.9 0.0
21/09:30am 26.6 25.9 18.7 62 5.0 S 20 30 11 16 1010.3 1010.3 0.0
21/09:00am 26.1 25.8 19.2 65 4.4 S 19 26 10 14 1010.8 1010.8 0.0
21/08:30am 25.8 25.5 19.2 67 4.2 SSE 19 26 10 14 1010.7 1010.7 0.0
21/08:00am 25.0 24.6 18.9 69 3.9 SSE 19 24 10 13 1010.8 1010.8 0.0
21/07:30am 24.3 24.9 19.4 74 3.1 SSE 15 20 8 11 1010.8 1010.8 0.0
21/07:00am 23.0 25.5 20.3 85 1.7 SSE 7 15 4 8 1010.7 1010.7 0.0
21/06:30am 21.9 25.1 21.6 98 0.2 SE 7 9 4 5 1010.6 1010.6 0.0
21/06:00am 21.4 24.0 21.2 99 0.1 SE 9 13 5 7 1010.3 1010.3 0.0
21/05:30am 21.5 24.2 21.3 99 0.1 SE 9 13 5 7 1010.1 1010.1 0.0
21/05:00am 21.6 24.3 21.4 99 0.1 SE 9 13 5 7 1009.9 1009.9 0.0
21/04:30am 21.7 24.3 21.2 97 0.3 SE 9 13 5 7 1009.7 1009.7 0.0
21/04:00am 22.8 24.6 21.8 94 0.7 SSE 15 26 8 14 1009.4 1009.4 0.0
21/03:30am 23.2 24.8 22.2 94 0.7 SSE 17 26 9 14 1009.3 1009.3 0.0
21/03:00am 23.1 24.5 21.9 93 0.8 SSE 17 24 9 13 1009.3 1009.3 0.0
21/02:30am 23.1 24.4 21.7 92 0.9 SSE 17 24 9 13 1009.5 1009.5 0.0
21/02:00am 23.0 23.9 21.5 91 1.0 S 19 26 10 14 1009.7 1009.7 0.0
21/01:30am 23.0 23.5 21.1 89 1.2 S 20 30 11 16 1010.0 1010.0 0.0
21/01:00am 23.1 23.2 21.2 89 1.2 S 22 28 12 15 1010.2 1010.2 0.0
21/12:30am 23.1 23.9 21.4 90 1.1 SSW 19 24 10 13 1010.4 1010.4 0.0
21/12:00am 23.1 24.6 21.2 89 1.2 S 15 22 8 12 1010.4 1010.4 0.0
 
Date/Time
WST
Temp
°C
App
Temp
°C
Dew
Point
°C
Rel
Hum
%
Delta-T
°C
Wind Press
QNH
hPa
Press
MSL
hPa
Rain since
9am
mm
Dir  Spd
km/h
Gust
km/h
Spd
kts
Gust
kts
20/11:30pm 23.1 24.6 21.2 89 1.2 SSW 15 22 8 12 1010.8 1010.8 0.0
20/11:00pm 23.1 24.8 21.0 88 1.4 S 13 20 7 11 1010.8 1010.8 0.0

Other formats

Comma delimited format used in spreadsheet applications
http://www.bom.gov.au/fwo/IDW60801/IDW60801.95609.axf

JavaScript Object Notation format (JSON) in row-major order
http://www.bom.gov.au/fwo/IDW60801/IDW60801.95609.json

Data quality

Most of these data are generated automatically and are frequently updated. Quality checks on data are not normally performed. It is possible for incorrect values to appear. Refer to information at About Latest Weather Observations and please check the disclaimer before using these data.